Time;durP1;ratioP1;P1;durP2;ratioP2;P2;SDS_P1;SDS_P2;PMS_P1;PMS_P2;Temp;Humidity;BMP_temperature;BMP_pressure;BME280_temperature;BME280_humidity;BME280_pressure;Samples;Min_cycle;Max_cycle;Signal;HPM_P1;HPM_P2
2021/10/13 04:01:19;;;;;;;18.58;10.05;;;3.90;99.90;;;;;;5531804;23;20233;-70
2021/10/13 04:03:46;;;;;;;18.75;10.05;;;3.90;99.90;;;;;;4935996;29;20213;-70
2021/10/13 04:06:12;;;;;;;17.60;10.98;;;3.90;99.90;;;;;;4936879;28;20265;-70
2021/10/13 04:08:39;;;;;;;20.60;10.82;;;3.80;99.90;;;;;;4935814;29;20214;-70
2021/10/13 04:11:06;;;;;;;16.90;10.48;;;3.80;99.90;;;;;;4936290;29;20663;-70
2021/10/13 04:13:32;;;;;;;16.50;10.32;;;3.80;99.90;;;;;;4936170;29;20217;-70
2021/10/13 04:15:59;;;;;;;13.73;10.10;;;3.80;99.90;;;;;;4936494;29;20686;-70
2021/10/13 04:18:27;;;;;;;22.77;11.02;;;3.80;99.90;;;;;;4936474;29;20500;-70
2021/10/13 04:20:54;;;;;;;22.58;12.85;;;3.80;99.90;;;;;;4936321;29;20229;-70
2021/10/13 04:23:21;;;;;;;21.65;12.40;;;3.80;99.90;;;;;;4934748;28;20292;-70
2021/10/13 04:25:47;;;;;;;18.55;10.68;;;3.80;99.90;;;;;;4936188;29;20234;-70
2021/10/13 04:28:14;;;;;;;18.30;12.50;;;3.80;99.90;;;;;;4936112;29;20214;-70
2021/10/13 04:30:41;;;;;;;18.63;11.23;;;3.80;99.90;;;;;;4936188;29;20277;-70
2021/10/13 04:33:07;;;;;;;21.75;11.63;;;3.80;99.90;;;;;;4935443;28;20356;-70
2021/10/13 04:35:35;;;;;;;22.27;10.90;;;3.80;99.90;;;;;;4936050;29;20234;-70
2021/10/13 04:38:05;;;;;;;16.50;10.60;;;3.80;99.90;;;;;;4935218;29;20551;-70
2021/10/13 04:40:32;;;;;;;17.42;11.43;;;3.80;99.90;;;;;;4932850;29;20265;-70
2021/10/13 04:42:59;;;;;;;16.90;10.80;;;3.80;99.90;;;;;;4916614;29;20229;-70
2021/10/13 04:45:26;;;;;;;17.83;11.27;;;3.80;99.90;;;;;;4916896;29;20273;-70
2021/10/13 04:47:52;;;;;;;21.63;11.50;;;3.80;99.90;;;;;;4916810;29;20207;-70
2021/10/13 04:50:19;;;;;;;14.60;10.18;;;3.80;99.90;;;;;;4916675;29;20504;-70
2021/10/13 04:52:47;;;;;;;21.25;11.73;;;3.70;99.90;;;;;;4915929;29;20222;-70
2021/10/13 04:55:14;;;;;;;15.13;10.77;;;3.80;99.90;;;;;;4916956;29;20242;-71
2021/10/13 04:57:40;;;;;;;21.85;12.13;;;3.70;99.90;;;;;;4917071;29;20214;-71
2021/10/13 05:00:08;;;;;;;23.00;12.77;;;3.80;99.90;;;;;;4915840;29;20226;-71
2021/10/13 05:02:35;;;;;;;18.10;11.73;;;3.70;99.90;;;;;;4916062;29;20222;-71
2021/10/13 05:05:01;;;;;;;17.27;10.45;;;3.70;99.90;;;;;;4916463;29;20640;-71
2021/10/13 05:07:28;;;;;;;27.42;12.27;;;3.70;99.90;;;;;;4915809;29;20214;-71
2021/10/13 05:09:56;;;;;;;20.70;11.10;;;3.70;99.90;;;;;;4916672;29;20294;-71
2021/10/13 05:12:23;;;;;;;22.52;12.10;;;3.70;99.90;;;;;;4916316;29;20661;-71
2021/10/13 05:14:49;;;;;;;21.33;11.40;;;3.80;99.90;;;;;;4916387;29;20218;-71
2021/10/13 05:17:16;;;;;;;20.02;12.63;;;3.70;99.90;;;;;;4916293;29;20218;-71
2021/10/13 05:19:42;;;;;;;15.82;11.20;;;3.70;99.90;;;;;;4916307;29;20214;-71
2021/10/13 05:22:09;;;;;;;18.00;11.25;;;3.70;99.90;;;;;;4915669;29;20325;-71
2021/10/13 05:24:36;;;;;;;24.42;12.63;;;3.60;99.90;;;;;;4915504;29;20234;-71
2021/10/13 05:27:04;;;;;;;17.88;10.90;;;3.60;99.90;;;;;;4916077;29;20675;-71
2021/10/13 05:29:31;;;;;;;18.10;12.18;;;3.60;99.90;;;;;;4916102;29;20258;-71
2021/10/13 05:31:57;;;;;;;16.30;11.25;;;3.60;99.90;;;;;;4915619;29;20230;-71
2021/10/13 05:34:24;;;;;;;18.48;10.73;;;3.60;99.90;;;;;;4915968;29;20294;-71
2021/10/13 05:36:50;;;;;;;18.52;10.50;;;3.50;99.90;;;;;;4915615;29;20281;-71
2021/10/13 05:39:17;;;;;;;16.15;11.63;;;3.50;99.90;;;;;;4915809;29;20353;-71
2021/10/13 05:41:44;;;;;;;23.17;12.65;;;3.50;99.90;;;;;;4916200;29;20238;-70
2021/10/13 05:44:12;;;;;;;19.08;11.18;;;3.50;99.90;;;;;;4915431;29;20679;-71
2021/10/13 05:46:38;;;;;;;19.42;12.75;;;3.50;99.90;;;;;;4915693;29;20214;-71
2021/10/13 05:49:05;;;;;;;21.30;13.52;;;3.50;99.90;;;;;;4915822;29;20345;-71
2021/10/13 05:51:31;;;;;;;27.33;15.35;;;3.50;99.90;;;;;;4915740;29;20774;-70
2021/10/13 05:53:58;;;;;;;28.33;16.20;;;3.50;99.90;;;;;;4914932;29;20218;-71
2021/10/13 05:56:25;;;;;;;30.15;17.27;;;3.50;99.90;;;;;;4915641;29;20210;-70
2021/10/13 05:58:53;;;;;;;23.80;16.27;;;3.50;99.90;;;;;;4915902;29;20218;-70
2021/10/13 06:01:21;;;;;;;34.75;19.95;;;3.40;99.90;;;;;;4915618;29;20329;-70
2021/10/13 06:03:48;;;;;;;38.55;22.10;;;3.50;99.90;;;;;;4915741;29;20218;-71
2021/10/13 06:06:16;;;;;;;27.00;17.55;;;3.50;99.90;;;;;;4915782;29;20590;-71
2021/10/13 06:08:43;;;;;;;23.33;15.43;;;3.50;99.90;;;;;;4915204;29;20619;-71
2021/10/13 06:11:09;;;;;;;20.60;13.13;;;3.50;99.90;;;;;;4918051;29;20234;-71
2021/10/13 06:13:36;;;;;;;26.90;14.60;;;3.50;99.90;;;;;;4919305;29;20217;-71
2021/10/13 06:16:03;;;;;;;21.88;14.40;;;3.50;99.90;;;;;;4919738;29;20218;-71
2021/10/13 06:18:31;;;;;;;33.60;18.48;;;3.50;99.90;;;;;;4919517;29;20293;-71
2021/10/13 06:20:58;;;;;;;21.67;13.75;;;3.50;99.90;;;;;;4935984;29;20238;-71
2021/10/13 06:23:24;;;;;;;19.42;13.25;;;3.50;99.90;;;;;;4937239;29;20666;-71
2021/10/13 06:25:51;;;;;;;19.30;12.45;;;3.60;99.90;;;;;;4938465;29;20233;-71
2021/10/13 06:28:18;;;;;;;15.60;11.27;;;3.60;99.90;;;;;;4938268;29;20302;-71
2021/10/13 06:30:44;;;;;;;21.52;12.68;;;3.60;99.90;;;;;;4938658;29;20230;-71
2021/10/13 06:33:11;;;;;;;16.27;11.48;;;3.60;99.90;;;;;;4938009;29;20667;-71
2021/10/13 06:35:39;;;;;;;18.77;11.00;;;3.70;99.90;;;;;;4938212;29;20217;-71
2021/10/13 06:38:07;;;;;;;17.88;12.30;;;3.70;99.90;;;;;;4937375;28;20282;-71
2021/10/13 06:40:33;;;;;;;23.52;16.48;;;3.80;99.90;;;;;;4938245;29;20284;-70
2021/10/13 06:43:02;;;;;;;18.70;11.52;;;3.80;99.90;;;;;;4937758;29;20671;-71
2021/10/13 06:45:28;;;;;;;16.08;11.00;;;3.80;99.90;;;;;;4937810;29;20736;-70
2021/10/13 06:47:55;;;;;;;15.00;9.20;;;3.90;99.90;;;;;;4937931;28;20210;-71
2021/10/13 06:50:21;;;;;;;17.13;10.13;;;3.90;99.90;;;;;;4937746;29;20210;-71
2021/10/13 06:52:49;;;;;;;12.77;9.02;;;4.00;99.90;;;;;;4936832;29;20238;-71
2021/10/13 06:55:16;;;;;;;19.20;10.77;;;4.00;99.90;;;;;;4937828;29;20209;-71
2021/10/13 06:57:43;;;;;;;14.35;9.73;;;4.10;99.90;;;;;;4937842;29;20226;-71
2021/10/13 07:00:11;;;;;;;12.57;9.73;;;4.10;99.90;;;;;;4937871;29;20217;-71
2021/10/13 07:02:37;;;;;;;12.82;8.85;;;4.20;99.90;;;;;;4937336;29;20226;-71
2021/10/13 07:05:05;;;;;;;17.48;10.27;;;4.20;99.90;;;;;;4937770;29;20593;-71
2021/10/13 07:07:31;;;;;;;13.75;10.07;;;4.30;99.90;;;;;;4936742;28;20210;-72
2021/10/13 07:09:59;;;;;;;16.83;12.23;;;4.40;99.90;;;;;;4922545;29;20219;-72
2021/10/13 07:12:26;;;;;;;11.20;8.98;;;4.50;99.90;;;;;;4918305;29;20570;-71
2021/10/13 07:14:52;;;;;;;17.13;13.55;;;4.50;99.90;;;;;;4918464;29;20277;-72
2021/10/13 07:17:19;;;;;;;11.93;9.50;;;4.60;99.90;;;;;;4918481;29;20254;-72
2021/10/13 07:19:46;;;;;;;11.75;9.13;;;4.60;99.90;;;;;;4917041;29;20694;-72
2021/10/13 07:22:13;;;;;;;12.25;9.18;;;4.60;99.90;;;;;;4916723;29;20290;-72
2021/10/13 07:24:40;;;;;;;21.27;14.52;;;4.70;99.90;;;;;;4917529;29;20210;-69
2021/10/13 07:27:08;;;;;;;10.75;8.93;;;4.70;99.90;;;;;;4918439;29;20219;-69
2021/10/13 07:29:40;;;;;;;15.38;11.57;;;4.80;99.90;;;;;;4917941;29;20207;-68
2021/10/13 07:32:07;;;;;;;14.20;9.75;;;4.90;99.90;;;;;;4917989;29;20230;-69
2021/10/13 07:34:34;;;;;;;15.30;8.90;;;5.00;99.90;;;;;;4918042;29;20218;-69
2021/10/13 07:37:02;;;;;;;11.90;9.65;;;5.10;99.90;;;;;;4917887;29;20215;-69
2021/10/13 07:39:28;;;;;;;16.23;10.55;;;5.20;99.90;;;;;;4917751;29;20218;-69
2021/10/13 07:41:55;;;;;;;11.60;9.73;;;5.30;99.90;;;;;;4917780;29;20238;-69
2021/10/13 07:44:23;;;;;;;8.00;7.20;;;5.40;99.90;;;;;;4917739;29;20214;-69
2021/10/13 07:46:50;;;;;;;13.65;9.30;;;5.50;99.90;;;;;;4917833;29;20297;-69
2021/10/13 07:49:17;;;;;;;13.48;9.40;;;5.50;99.90;;;;;;4917780;29;20285;-69
2021/10/13 07:51:43;;;;;;;15.70;12.10;;;5.60;99.90;;;;;;4917652;29;20630;-68
2021/10/13 07:54:10;;;;;;;32.10;22.20;;;5.70;99.90;;;;;;4917037;29;20584;-69
2021/10/13 07:56:37;;;;;;;11.02;8.10;;;5.90;99.90;;;;;;4918739;29;20270;-68
2021/10/13 07:59:03;;;;;;;8.70;7.95;;;6.00;99.90;;;;;;4917462;29;20346;-70
2021/10/13 08:01:31;;;;;;;6.03;5.55;;;6.20;99.90;;;;;;4917424;29;20618;-70
2021/10/13 08:03:58;;;;;;;31.33;21.73;;;6.30;99.90;;;;;;4917215;29;20437;-70
2021/10/13 08:06:24;;;;;;;10.40;9.35;;;6.40;99.90;;;;;;4917580;29;20258;-70
2021/10/13 08:08:51;;;;;;;8.00;6.38;;;6.50;99.90;;;;;;4916721;29;20210;-70
2021/10/13 08:11:18;;;;;;;6.45;5.85;;;6.50;99.90;;;;;;4917538;29;20282;-70
2021/10/13 08:13:44;;;;;;;13.93;10.88;;;6.60;99.90;;;;;;4917056;29;20651;-70
2021/10/13 08:16:11;;;;;;;13.73;9.63;;;6.60;99.90;;;;;;4917195;29;20639;-70
2021/10/13 08:18:39;;;;;;;4.28;3.97;;;6.70;99.90;;;;;;4916468;29;20210;-70
2021/10/13 08:21:05;;;;;;;11.65;8.27;;;6.80;99.90;;;;;;4916822;29;20540;-70
2021/10/13 08:23:32;;;;;;;3.85;3.55;;;6.90;99.90;;;;;;4916052;29;20215;-71
2021/10/13 08:26:00;;;;;;;3.22;2.92;;;7.00;99.90;;;;;;4917009;29;20293;-70
2021/10/13 08:28:27;;;;;;;3.47;3.28;;;7.20;99.90;;;;;;4916467;29;20307;-70
2021/10/13 08:30:54;;;;;;;5.85;5.13;;;7.30;99.90;;;;;;4916744;29;20632;-70
2021/10/13 08:33:21;;;;;;;3.45;2.95;;;7.40;99.90;;;;;;4916164;29;20285;-70
2021/10/13 08:35:49;;;;;;;3.20;3.10;;;7.50;99.90;;;;;;4916543;29;20286;-70
2021/10/13 08:38:16;;;;;;;3.25;2.85;;;7.60;99.90;;;;;;4915854;29;20734;-70
2021/10/13 08:40:43;;;;;;;4.43;3.13;;;7.70;99.90;;;;;;4916725;29;20290;-70
2021/10/13 08:43:10;;;;;;;3.60;3.08;;;7.80;99.90;;;;;;4916351;29;20218;-69
2021/10/13 08:45:39;;;;;;;3.67;3.38;;;7.90;99.90;;;;;;4916523;29;20223;-71
2021/10/13 08:48:07;;;;;;;4.00;2.08;;;8.00;99.90;;;;;;4916510;29;20230;-71
2021/10/13 08:50:35;;;;;;;2.70;2.50;;;8.00;99.90;;;;;;4916533;29;20762;-71
2021/10/13 08:53:08;;;;;;;5.32;4.93;;;8.10;99.90;;;;;;4915333;29;20759;-71
2021/10/13 08:55:35;;;;;;;9.40;8.45;;;8.20;99.90;;;;;;4916975;29;20265;-71
2021/10/13 08:58:10;;;;;;;3.58;3.25;;;8.40;99.90;;;;;;4916543;29;20215;-71
2021/10/13 09:00:36;;;;;;;2.47;2.10;;;8.50;99.90;;;;;;4916501;29;20706;-71
2021/10/13 09:03:03;;;;;;;7.53;2.33;;;8.60;99.90;;;;;;4916475;29;20218;-71
2021/10/13 09:05:30;;;;;;;2.85;2.00;;;8.70;99.90;;;;;;4916461;29;20289;-71
2021/10/13 09:07:57;;;;;;;2.35;2.25;;;8.80;99.90;;;;;;4915723;29;20281;-71
2021/10/13 09:10:30;;;;;;;1.98;1.88;;;8.90;99.90;;;;;;4916510;29;20277;-71
2021/10/13 09:12:57;;;;;;;3.42;2.30;;;9.00;99.90;;;;;;4915974;29;20223;-72
2021/10/13 09:15:26;;;;;;;2.63;1.25;;;9.10;99.90;;;;;;4916464;29;20215;-71
2021/10/13 09:17:58;;;;;;;1.75;1.75;;;9.20;99.90;;;;;;4915230;29;20320;-71
2021/10/13 09:20:26;;;;;;;2.38;2.28;;;9.20;99.90;;;;;;4916167;29;20686;-71
2021/10/13 09:23:06;;;;;;;1.60;1.60;;;9.30;99.90;;;;;;4915216;29;20210;-71
2021/10/13 09:25:36;;;;;;;1.50;1.45;;;9.30;99.90;;;;;;4916005;29;20258;-71
2021/10/13 09:28:03;;;;;;;13.38;12.23;;;9.40;99.90;;;;;;4916341;29;20568;-71
2021/10/13 09:30:35;;;;;;;2.95;2.85;;;9.50;99.90;;;;;;4915693;29;20242;-72
2021/10/13 09:33:13;;;;;;;19.00;12.93;;;9.60;99.90;;;;;;4915766;29;20274;-71
2021/10/13 09:35:45;;;;;;;2.63;2.45;;;9.70;99.90;;;;;;4915984;29;20222;-72
2021/10/13 09:38:18;;;;;;;1.58;1.48;;;9.80;99.90;;;;;;4915411;29;20246;-71
2021/10/13 09:40:47;;;;;;;6.05;5.55;;;9.90;99.90;;;;;;4916018;29;20585;-71
2021/10/13 09:43:34;;;;;;;1.10;1.10;;;9.90;99.90;;;;;;4915772;29;20246;-71
2021/10/13 09:46:03;;;;;;;5.35;3.53;;;10.10;99.90;;;;;;4915809;29;20241;-71
2021/10/13 09:48:30;;;;;;;1.73;1.60;;;10.10;99.90;;;;;;4916133;29;20221;-72
2021/10/13 09:50:56;;;;;;;1.10;1.10;;;10.20;99.90;;;;;;4917466;29;20286;-73
2021/10/13 09:53:26;;;;;;;7.55;6.40;;;10.30;99.90;;;;;;4917873;29;20218;-73
2021/10/13 09:55:55;;;;;;;1.77;1.20;;;10.30;99.90;;;;;;4916181;29;20258;-72
2021/10/13 09:58:24;;;;;;;4.70;4.25;;;10.40;99.90;;;;;;4915621;29;20218;-72
2021/10/13 10:01:06;;;;;;;1.33;1.10;;;10.50;99.90;;;;;;4915604;29;20238;-72
2021/10/13 10:03:34;;;;;;;1.30;1.30;;;10.60;99.90;;;;;;4915617;29;20214;-71
2021/10/13 10:06:01;;;;;;;1.30;1.30;;;10.70;99.90;;;;;;4915614;29;20289;-72
2021/10/13 10:08:28;;;;;;;1.48;1.40;;;10.80;99.90;;;;;;4915129;29;20210;-72
2021/10/13 10:11:05;;;;;;;4.07;3.15;;;10.80;99.90;;;;;;4915660;29;20295;-72
2021/10/13 10:13:36;;;;;;;2.78;1.20;;;10.90;99.90;;;;;;4915379;29;20550;-71
2021/10/13 10:16:03;;;;;;;1.73;1.73;;;11.20;99.90;;;;;;4915785;29;20258;-72
2021/10/13 10:18:32;;;;;;;1.60;1.50;;;11.40;99.90;;;;;;4915891;29;20214;-72
2021/10/13 10:21:18;;;;;;;1.98;1.60;;;11.60;99.90;;;;;;4915408;29;20230;-72
2021/10/13 10:23:46;;;;;;;1.20;1.20;;;11.70;99.90;;;;;;4914604;29;20214;-72
2021/10/13 10:26:35;;;;;;;1.03;0.97;;;11.80;99.90;;;;;;4915488;29;20988;-72
2021/10/13 10:29:13;;;;;;;1.03;1.03;;;12.00;99.90;;;;;;4911031;29;20816;-72
2021/10/13 10:31:42;;;;;;;1.20;1.10;;;12.20;99.90;;;;;;4915473;29;20553;-72
2021/10/13 10:34:14;;;;;;;1.00;1.00;;;12.20;99.90;;;;;;4915106;29;20466;-70
2021/10/13 10:37:12;;;;;;;2.50;2.03;;;12.30;99.90;;;;;;4915779;29;20514;-73
2021/10/13 10:40:00;;;;;;;2.80;0.93;;;12.50;99.90;;;;;;4915246;29;20463;-72
2021/10/13 10:42:55;;;;;;;1.80;0.67;;;12.60;99.90;;;;;;4915219;29;20554;-71
2021/10/13 10:45:23;;;;;;;6.90;1.30;;;12.60;99.90;;;;;;4915772;29;20530;-72
2021/10/13 10:47:52;;;;;;;3.07;1.13;;;12.70;99.90;;;;;;4915348;29;20582;-72
2021/10/13 10:50:34;;;;;;;0.70;0.70;;;12.80;99.90;;;;;;4915503;29;20550;-72
2021/10/13 10:53:14;;;;;;;1.20;0.83;;;13.00;99.90;;;;;;4914287;29;20463;-72
2021/10/13 10:55:42;;;;;;;2.00;0.70;;;13.00;99.90;;;;;;4915455;29;20486;-72
2021/10/13 10:58:22;;;;;;;1.27;1.17;;;12.90;99.90;;;;;;4917828;29;20470;-71
2021/10/13 11:01:04;;;;;;;0.93;0.77;;;12.90;99.90;;;;;;4918815;29;20505;-72
2021/10/13 11:03:34;;;;;;;2.87;0.80;;;12.80;99.90;;;;;;4918466;29;20533;-72
2021/10/13 11:06:15;;;;;;;0.90;0.90;;;12.70;99.90;;;;;;4919275;29;20478;-72
2021/10/13 11:08:57;;;;;;;2.83;0.97;;;12.80;99.90;;;;;;4917849;29;20474;-72
2021/10/13 11:11:26;;;;;;;1.50;0.80;;;12.80;99.90;;;;;;4919128;29;20486;-72
2021/10/13 11:14:04;;;;;;;0.80;0.80;;;12.80;99.90;;;;;;4918344;29;20600;-72
2021/10/13 11:16:31;;;;;;;1.30;1.07;;;12.80;99.90;;;;;;4918483;29;20505;-72
2021/10/13 11:19:09;;;;;;;1.83;1.57;;;12.90;99.90;;;;;;4918497;29;20881;-73
2021/10/13 11:21:36;;;;;;;2.13;1.97;;;12.90;99.90;;;;;;4918509;29;20828;-72
2021/10/13 11:24:03;;;;;;;5.13;1.40;;;13.00;99.90;;;;;;4917219;29;20525;-71
2021/10/13 11:26:30;;;;;;;2.73;1.07;;;13.00;99.90;;;;;;4918567;29;20490;-72
2021/10/13 11:28:57;;;;;;;2.03;2.03;;;13.00;99.90;;;;;;4917924;29;20486;-71
2021/10/13 11:31:25;;;;;;;2.07;1.97;;;13.10;99.90;;;;;;4918459;29;20494;-73
2021/10/13 11:34:05;;;;;;;1.10;1.10;;;13.00;99.90;;;;;;4917919;29;20979;-72
2021/10/13 11:36:32;;;;;;;1.53;1.13;;;13.00;99.90;;;;;;4918383;29;20470;-71
2021/10/13 11:38:58;;;;;;;1.30;0.87;;;12.90;99.90;;;;;;4917383;29;20542;-72
2021/10/13 11:41:25;;;;;;;2.80;2.60;;;12.90;99.90;;;;;;4918117;29;20902;-72
2021/10/13 11:43:52;;;;;;;1.73;1.63;;;13.00;99.90;;;;;;4917847;29;20474;-71
2021/10/13 11:46:19;;;;;;;3.13;2.83;;;13.00;99.90;;;;;;4917992;29;20574;-70
2021/10/13 11:48:47;;;;;;;4.00;1.43;;;13.00;99.90;;;;;;4917978;29;20463;-70
2021/10/13 11:51:17;;;;;;;1.50;1.50;;;13.00;99.90;;;;;;4917760;29;20518;-70
2021/10/13 11:53:49;;;;;;;3.63;3.30;;;13.00;99.90;;;;;;4916591;29;20522;-70
2021/10/13 11:56:16;;;;;;;2.10;2.00;;;13.00;99.90;;;;;;4918142;29;20521;-70
2021/10/13 11:58:43;;;;;;;1.70;1.60;;;13.00;99.90;;;;;;4917694;29;20502;-70
2021/10/13 12:01:15;;;;;;;2.03;1.33;;;13.10;99.90;;;;;;4917595;29;21006;-70
2021/10/13 12:03:42;;;;;;;1.90;1.73;;;13.20;99.90;;;;;;4917289;29;20474;-70
2021/10/13 12:06:13;;;;;;;1.43;1.43;;;13.30;99.90;;;;;;4917683;29;20479;-70
2021/10/13 12:08:42;;;;;;;2.97;1.80;;;13.30;99.90;;;;;;4916413;29;20466;-70
2021/10/13 12:11:10;;;;;;;2.23;1.57;;;13.40;99.90;;;;;;4917684;29;20494;-70
2021/10/13 12:13:39;;;;;;;1.90;1.80;;;13.60;99.90;;;;;;4917677;29;20537;-70
2021/10/13 12:16:07;;;;;;;2.20;1.47;;;13.60;99.90;;;;;;4917393;29;20510;-71
2021/10/13 12:18:35;;;;;;;1.30;1.30;;;13.60;99.90;;;;;;4917530;29;20529;-70
2021/10/13 12:21:14;;;;;;;2.97;1.40;;;13.60;99.90;;;;;;4917513;29;20849;-70
2021/10/13 12:23:46;;;;;;;1.40;1.30;;;13.70;99.90;;;;;;4916557;29;20467;-71
2021/10/13 12:26:15;;;;;;;2.93;2.00;;;13.70;99.90;;;;;;4917249;29;20958;-70
2021/10/13 12:28:42;;;;;;;2.50;1.10;;;13.60;99.90;;;;;;4917075;29;20477;-71
2021/10/13 12:31:10;;;;;;;1.50;1.00;;;13.60;99.90;;;;;;4917375;29;20486;-70
2021/10/13 12:33:46;;;;;;;1.53;1.43;;;13.50;99.90;;;;;;4916599;29;20522;-70
2021/10/13 12:36:18;;;;;;;1.70;1.10;;;13.50;99.90;;;;;;4917191;29;21019;-70
2021/10/13 12:38:49;;;;;;;1.70;1.10;;;13.50;99.90;;;;;;4916473;29;20470;-70
2021/10/13 12:41:17;;;;;;;2.23;1.00;;;13.60;99.90;;;;;;4916992;29;20486;-70
2021/10/13 12:43:46;;;;;;;10.20;9.10;;;13.70;99.90;;;;;;4916845;29;20466;-70
2021/10/13 12:46:22;;;;;;;3.10;1.13;;;13.80;99.90;;;;;;4917049;29;20473;-71
2021/10/13 12:48:48;;;;;;;2.63;1.33;;;13.80;99.90;;;;;;4916947;29;20473;-70
2021/10/13 12:51:17;;;;;;;3.43;1.27;;;13.90;99.90;;;;;;4916733;29;20510;-70
2021/10/13 12:53:44;;;;;;;2.43;1.10;;;14.00;99.90;;;;;;4915566;29;20466;-70
2021/10/13 12:56:12;;;;;;;1.33;1.00;;;14.00;99.90;;;;;;4916938;29;20474;-71
2021/10/13 12:58:39;;;;;;;4.50;1.40;;;14.00;99.90;;;;;;4916525;29;20868;-70
2021/10/13 13:01:06;;;;;;;2.93;1.80;;;14.00;99.90;;;;;;4916439;29;20924;-70
2021/10/13 13:03:34;;;;;;;1.47;1.23;;;14.00;99.90;;;;;;4916229;29;20473;-71
2021/10/13 13:06:00;;;;;;;2.10;0.90;;;13.90;99.90;;;;;;4916551;29;20959;-71
2021/10/13 13:08:28;;;;;;;2.73;1.20;;;13.80;99.90;;;;;;4915256;29;20518;-70
2021/10/13 13:10:55;;;;;;;2.93;1.13;;;13.80;99.90;;;;;;4916407;29;20522;-70
2021/10/13 13:13:22;;;;;;;1.60;1.20;;;13.70;99.90;;;;;;4915763;29;21046;-70
2021/10/13 13:15:49;;;;;;;2.87;1.10;;;13.60;99.90;;;;;;4916716;29;20514;-70
2021/10/13 13:18:16;;;;;;;2.53;2.43;;;13.40;99.90;;;;;;4916025;29;20900;-70
2021/10/13 13:20:43;;;;;;;2.07;0.97;;;13.30;99.90;;;;;;4915956;29;20482;-72
2021/10/13 13:23:10;;;;;;;1.00;1.00;;;13.20;99.90;;;;;;4915455;29;20471;-72
2021/10/13 13:25:40;;;;;;;1.23;1.00;;;13.30;99.90;;;;;;4916756;29;20982;-71
2021/10/13 13:28:07;;;;;;;2.47;0.87;;;13.30;99.90;;;;;;4916259;29;20890;-71
2021/10/13 13:30:33;;;;;;;0.70;0.70;;;13.20;99.90;;;;;;4916345;29;20498;-71
2021/10/13 13:33:00;;;;;;;1.73;1.23;;;13.10;99.90;;;;;;4916233;29;20820;-71
2021/10/13 13:35:27;;;;;;;1.10;1.00;;;13.10;99.90;;;;;;4916042;29;20899;-71
2021/10/13 13:37:53;;;;;;;2.93;1.23;;;13.00;99.90;;;;;;4915218;29;20541;-71
2021/10/13 13:40:21;;;;;;;1.40;1.10;;;12.90;99.90;;;;;;4916274;29;20461;-71
2021/10/13 13:42:49;;;;;;;1.00;1.00;;;12.80;99.90;;;;;;4915807;29;20572;-71
2021/10/13 13:45:16;;;;;;;3.23;1.33;;;12.70;99.90;;;;;;4915971;29;20553;-72
2021/10/13 13:47:43;;;;;;;3.30;1.40;;;12.70;99.90;;;;;;4915646;29;20851;-72
2021/10/13 13:50:10;;;;;;;1.35;1.25;;;12.60;99.90;;;;;;4915840;29;20462;-71
2021/10/13 13:52:37;;;;;;;2.53;1.10;;;12.50;99.90;;;;;;4914845;29;20270;-71
2021/10/13 13:55:04;;;;;;;1.95;1.00;;;12.40;99.90;;;;;;4916420;29;20467;-71
2021/10/13 13:57:31;;;;;;;1.57;1.47;;;12.40;99.90;;;;;;4915960;29;20206;-71
2021/10/13 13:59:59;;;;;;;1.90;1.55;;;12.30;99.90;;;;;;4915889;29;20470;-71
2021/10/13 14:02:26;;;;;;;3.13;1.77;;;12.20;99.90;;;;;;4915335;29;20242;-72
2021/10/13 14:04:52;;;;;;;2.05;1.77;;;12.10;99.90;;;;;;4916096;29;20215;-71
2021/10/13 14:07:19;;;;;;;2.67;2.58;;;12.10;99.90;;;;;;4915348;29;20754;-71
2021/10/13 14:09:46;;;;;;;1.70;1.60;;;12.00;99.90;;;;;;4915423;29;20210;-71
2021/10/13 14:12:12;;;;;;;1.40;1.40;;;12.00;99.90;;;;;;4915213;29;20230;-71
2021/10/13 14:14:39;;;;;;;2.38;1.85;;;11.80;99.90;;;;;;4915599;29;20222;-71
2021/10/13 14:17:07;;;;;;;3.40;3.20;;;11.70;99.90;;;;;;4915702;29;20738;-71
2021/10/13 14:19:34;;;;;;;2.90;2.75;;;11.60;99.90;;;;;;4915600;29;20215;-71
2021/10/13 14:22:00;;;;;;;2.63;1.75;;;11.40;99.90;;;;;;4915334;29;20238;-72
2021/10/13 14:24:27;;;;;;;1.98;1.50;;;11.30;99.90;;;;;;4914968;29;20238;-73
2021/10/13 14:26:58;;;;;;;2.35;2.25;;;11.20;99.90;;;;;;4915733;29;20274;-73
2021/10/13 14:29:25;;;;;;;3.13;3.00;;;11.10;99.90;;;;;;4915214;29;20225;-73
2021/10/13 14:31:53;;;;;;;5.93;4.50;;;11.00;99.90;;;;;;4917050;29;20316;-73
2021/10/13 14:34:21;;;;;;;5.10;4.70;;;11.00;99.90;;;;;;4918915;29;20250;-72
2021/10/13 14:36:48;;;;;;;2.95;2.92;;;11.00;99.90;;;;;;4919576;29;20301;-74
2021/10/13 14:39:15;;;;;;;4.35;3.83;;;11.00;99.90;;;;;;4918591;29;20214;-73
2021/10/13 14:41:42;;;;;;;5.32;4.82;;;11.00;99.90;;;;;;4918900;29;20654;-72
2021/10/13 14:44:09;;;;;;;5.85;5.45;;;11.00;99.90;;;;;;4918280;29;20215;-74
2021/10/13 14:46:36;;;;;;;3.88;3.67;;;11.00;99.90;;;;;;4919442;29;20329;-72
2021/10/13 14:49:02;;;;;;;7.30;5.55;;;11.00;99.90;;;;;;4918882;29;20656;-73
2021/10/13 14:51:32;;;;;;;4.85;3.60;;;11.00;99.90;;;;;;4919052;29;20226;-72
2021/10/13 14:53:59;;;;;;;2.83;2.50;;;11.00;99.90;;;;;;4916095;29;20218;-73
2021/10/13 14:56:25;;;;;;;2.65;2.55;;;11.10;99.90;;;;;;4918752;29;20578;-72
2021/10/13 14:58:52;;;;;;;2.38;2.25;;;11.10;99.90;;;;;;4918705;29;20603;-73
2021/10/13 15:01:22;;;;;;;2.25;2.10;;;11.10;99.90;;;;;;4918405;29;20250;-73
2021/10/13 15:03:49;;;;;;;3.20;3.00;;;11.10;99.90;;;;;;4918133;29;20214;-72
2021/10/13 15:06:16;;;;;;;2.75;2.53;;;11.10;99.90;;;;;;4918675;29;20214;-72
2021/10/13 15:08:44;;;;;;;4.43;2.38;;;11.10;99.90;;;;;;4917316;29;20239;-72
2021/10/13 15:11:10;;;;;;;2.20;2.10;;;11.10;99.90;;;;;;4918121;29;20312;-72
2021/10/13 15:13:38;;;;;;;2.67;2.58;;;11.10;99.90;;;;;;4918134;29;20218;-74
2021/10/13 15:16:05;;;;;;;4.32;2.13;;;11.10;99.90;;;;;;4918530;29;20273;-73
2021/10/13 15:18:32;;;;;;;3.08;2.47;;;11.10;99.90;;;;;;4921523;29;20363;-75
2021/10/13 15:21:00;;;;;;;2.47;1.90;;;11.10;99.90;;;;;;4920133;29;20230;-74
2021/10/13 15:23:26;;;;;;;2.58;2.35;;;11.20;99.90;;;;;;4918028;29;20211;-74
2021/10/13 15:25:54;;;;;;;2.50;1.92;;;11.10;99.90;;;;;;4918405;29;20230;-74
2021/10/13 15:28:21;;;;;;;3.08;2.35;;;11.10;99.90;;;;;;4918483;29;20238;-74
2021/10/13 15:30:47;;;;;;;2.35;2.28;;;11.20;99.90;;;;;;4918024;29;20262;-74
2021/10/13 15:33:14;;;;;;;2.42;2.28;;;11.10;99.90;;;;;;4920337;29;20697;-72
2021/10/13 15:35:41;;;;;;;2.53;2.20;;;11.10;99.90;;;;;;4917803;29;20218;-74
2021/10/13 15:38:09;;;;;;;2.15;2.05;;;11.10;99.90;;;;;;4917057;29;20274;-74
2021/10/13 15:40:35;;;;;;;1.88;1.80;;;11.10;99.90;;;;;;4917422;29;20246;-73
2021/10/13 15:43:05;;;;;;;1.65;1.60;;;11.10;99.90;;;;;;4916935;29;20218;-74
2021/10/13 15:45:31;;;;;;;4.93;1.77;;;11.00;99.90;;;;;;4917974;29;20218;-74
2021/10/13 15:47:58;;;;;;;2.42;1.60;;;11.00;99.90;;;;;;4917497;29;20259;-74
2021/10/13 15:50:25;;;;;;;3.42;1.52;;;10.90;99.90;;;;;;4917576;29;20218;-74
2021/10/13 15:52:51;;;;;;;2.15;1.70;;;10.90;99.90;;;;;;4916594;29;20616;-74
2021/10/13 15:55:18;;;;;;;2.60;2.50;;;10.80;99.90;;;;;;4917442;29;20715;-74
2021/10/13 15:57:45;;;;;;;3.75;2.35;;;10.80;99.90;;;;;;4917193;29;20244;-73
2021/10/13 16:00:14;;;;;;;3.00;2.80;;;10.70;99.90;;;;;;4917520;29;20214;-73
2021/10/13 16:02:41;;;;;;;12.10;7.68;;;10.70;99.90;;;;;;4917114;29;20223;-73
2021/10/13 16:05:09;;;;;;;5.60;4.72;;;10.60;99.90;;;;;;4917263;29;20218;-74
2021/10/13 16:07:38;;;;;;;4.57;4.18;;;10.60;99.90;;;;;;4916105;29;20725;-74
2021/10/13 16:10:06;;;;;;;8.43;5.65;;;10.50;99.90;;;;;;4917539;29;20596;-74
2021/10/13 16:12:32;;;;;;;6.53;6.03;;;10.50;99.90;;;;;;4917155;29;20349;-73
2021/10/13 16:15:00;;;;;;;7.65;5.80;;;10.40;99.90;;;;;;4917280;29;20206;-73
2021/10/13 16:17:28;;;;;;;10.68;6.30;;;10.40;99.90;;;;;;4917020;29;20207;-73
2021/10/13 16:19:54;;;;;;;7.28;6.63;;;10.40;99.90;;;;;;4916908;29;20207;-73
2021/10/13 16:22:21;;;;;;;3.72;3.70;;;10.40;99.90;;;;;;4916526;29;20293;-73
2021/10/13 16:24:49;;;;;;;3.60;2.80;;;10.30;99.90;;;;;;4916954;29;20282;-73
2021/10/13 16:27:16;;;;;;;3.65;3.35;;;10.40;99.90;;;;;;4917088;29;20207;-73
2021/10/13 16:29:43;;;;;;;10.77;7.85;;;10.30;99.90;;;;;;4916682;29;20266;-73
2021/10/13 16:32:12;;;;;;;8.38;7.32;;;10.30;99.90;;;;;;4916450;29;20719;-73
2021/10/13 16:34:40;;;;;;;8.05;7.45;;;10.30;99.90;;;;;;4916920;29;20206;-73
2021/10/13 16:37:07;;;;;;;10.00;9.20;;;10.30;99.90;;;;;;4916231;29;20718;-74
2021/10/13 16:39:35;;;;;;;6.20;5.80;;;10.30;99.90;;;;;;4916485;29;20281;-73
2021/10/13 16:42:03;;;;;;;5.00;4.35;;;10.30;99.90;;;;;;4916551;29;20642;-73
2021/10/13 16:44:30;;;;;;;2.47;2.38;;;10.30;99.90;;;;;;4916685;29;20628;-73
2021/10/13 16:46:56;;;;;;;3.05;2.85;;;10.30;99.90;;;;;;4916549;29;20285;-73
2021/10/13 16:49:23;;;;;;;3.25;3.15;;;10.30;99.90;;;;;;4916635;29;20237;-73
2021/10/13 16:51:52;;;;;;;4.85;3.28;;;10.30;99.90;;;;;;4916507;29;20242;-74